Evansville, Vermont
Current Conditions -  °F | °C
As of 10:35 PM on Friday 31 Oct 2014 (Local Time) from KEFK Reporting Station
Clear Clear  
Wind Chill: 27°   Ceiling: Unl
Heat Index: 33°   Visibility: 10mi
Dew Point: 28°   Wind: 6mph
Humidity: 81%   Direction: 340°NNW
Pressure: 30.06"   Gusts: NA
Location:  44.7955°N, 72.0983°W
Report Text: KEFK 010235Z AUTO 34005KT 10SM CLR 01/M02 A3006 RMK AO2 T00051024
Loading
Personal Weather Stations






























Interactive Weather Map
Tropical Storm Tracking
New forecast layout! Learn more

10-Day Weather Forecast

Advertisements
Track Severe Weather on mobile